Terminal Aerodrome Forecast
Issued by NWS

Home | Current Version | Previous Version | Text Only | Print | Product List | Glossary On
Versions: 1 2 3 4 5 6 7 8 9 10 11 12 13 14 15 16 17 18 19 20 21 22 23 24 25 26
000
FTUS45 KGJT 310003 AAA
TAFMTJ
TAF AMD
KMTJ 310003Z 3100/3124 32005KT P6SM OVC010
     FM310900 12003KT 2SM -RASN BR BKN007 OVC015
     FM311500 13005KT 1SM -RASN BR OVC005
     FM311900 33005KT 4SM -RA BR OVC015=

USA.gov is the U.S. government's official web portal to all federal, state and local government web resources and services.